sensor_id;sensor_type;location;lat;lon;timestamp;pressure;altitude;pressure_sealevel;temperature;humidity
42671;BME280;28283;55.426;37.756;2023-05-01T00:43:40;98489.97;;;6.49;91.56
42671;BME280;28283;55.426;37.756;2023-05-01T00:48:40;98495.03;;;6.66;90.83
42671;BME280;28283;55.426;37.756;2023-05-01T00:53:41;98494.78;;;6.61;91.02
42671;BME280;28283;55.426;37.756;2023-05-01T00:58:43;98477.78;;;6.68;91.37
42671;BME280;28283;55.426;37.756;2023-05-01T01:03:44;98444.88;;;6.61;91.10
42671;BME280;28283;55.426;37.756;2023-05-01T01:08:48;98427.19;;;6.60;90.77
42671;BME280;28283;55.426;37.756;2023-05-01T01:13:55;98421.41;;;6.50;91.80
42671;BME280;28283;55.426;37.756;2023-05-01T01:19:01;98424.59;;;6.32;91.76
42671;BME280;28283;55.426;37.756;2023-05-01T01:34:26;98402.56;;;6.23;92.68
42671;BME280;28283;55.426;37.756;2023-05-01T01:39:29;98419.25;;;6.39;92.09
42671;BME280;28283;55.426;37.756;2023-05-01T01:49:44;98405.69;;;6.75;90.27
42671;BME280;28283;55.426;37.756;2023-05-01T01:54:56;98437.31;;;6.78;90.08
42671;BME280;28283;55.426;37.756;2023-05-01T01:59:57;98443.41;;;7.00;89.58
42671;BME280;28283;55.426;37.756;2023-05-01T02:04:58;98461.47;;;6.98;88.84
42671;BME280;28283;55.426;37.756;2023-05-01T02:09:59;98454.91;;;7.01;88.76
42671;BME280;28283;55.426;37.756;2023-05-01T02:15:01;98468.41;;;6.93;89.32
42671;BME280;28283;55.426;37.756;2023-05-01T02:20:02;98464.22;;;6.70;90.44
42671;BME280;28283;55.426;37.756;2023-05-01T02:25:04;98474.09;;;6.69;90.79
42671;BME280;28283;55.426;37.756;2023-05-01T02:30:06;98481.00;;;6.64;91.28
42671;BME280;28283;55.426;37.756;2023-05-01T02:35:07;98491.94;;;6.69;90.92
42671;BME280;28283;55.426;37.756;2023-05-01T02:40:08;98491.97;;;6.76;90.79
42671;BME280;28283;55.426;37.756;2023-05-01T02:45:17;98487.22;;;6.71;91.03
42671;BME280;28283;55.426;37.756;2023-05-01T02:50:19;98483.25;;;6.95;90.53
42671;BME280;28283;55.426;37.756;2023-05-01T02:55:20;98459.78;;;6.91;91.52
42671;BME280;28283;55.426;37.756;2023-05-01T03:00:21;98464.72;;;6.94;91.06
42671;BME280;28283;55.426;37.756;2023-05-01T03:05:22;98474.06;;;7.11;90.25
42671;BME280;28283;55.426;37.756;2023-05-01T03:10:23;98488.63;;;7.08;89.85
42671;BME280;28283;55.426;37.756;2023-05-01T03:15:23;98499.75;;;7.12;90.24
42671;BME280;28283;55.426;37.756;2023-05-01T03:20:24;98505.66;;;7.01;90.34
42671;BME280;28283;55.426;37.756;2023-05-01T03:25:24;98513.72;;;7.07;91.01
42671;BME280;28283;55.426;37.756;2023-05-01T03:30:24;98501.03;;;7.23;90.44
42671;BME280;28283;55.426;37.756;2023-05-01T03:35:25;98507.56;;;7.14;90.43
42671;BME280;28283;55.426;37.756;2023-05-01T03:40:26;98488.72;;;7.29;89.74
42671;BME280;28283;55.426;37.756;2023-05-01T03:45:26;98493.84;;;7.30;89.73
42671;BME280;28283;55.426;37.756;2023-05-01T03:50:27;98499.63;;;7.34;89.83
42671;BME280;28283;55.426;37.756;2023-05-01T03:55:27;98504.97;;;7.27;88.96
42671;BME280;28283;55.426;37.756;2023-05-01T04:00:28;98502.69;;;7.24;90.09
42671;BME280;28283;55.426;37.756;2023-05-01T04:05:28;98509.69;;;7.32;90.48
42671;BME280;28283;55.426;37.756;2023-05-01T04:10:29;98508.88;;;7.31;90.15
42671;BME280;28283;55.426;37.756;2023-05-01T04:15:30;98527.84;;;7.43;88.75
42671;BME280;28283;55.426;37.756;2023-05-01T04:20:31;98528.25;;;7.53;88.00
42671;BME280;28283;55.426;37.756;2023-05-01T04:25:33;98533.38;;;7.48;89.13
42671;BME280;28283;55.426;37.756;2023-05-01T04:30:33;98535.63;;;7.44;88.85
42671;BME280;28283;55.426;37.756;2023-05-01T04:35:34;98530.16;;;7.59;87.46
42671;BME280;28283;55.426;37.756;2023-05-01T04:40:35;98530.91;;;7.40;88.96
42671;BME280;28283;55.426;37.756;2023-05-01T04:45:39;98526.00;;;7.43;88.28
42671;BME280;28283;55.426;37.756;2023-05-01T04:50:39;98532.34;;;7.42;88.82
42671;BME280;28283;55.426;37.756;2023-05-01T04:55:40;98534.06;;;7.63;89.00
42671;BME280;28283;55.426;37.756;2023-05-01T05:00:40;98527.06;;;7.62;88.52
42671;BME280;28283;55.426;37.756;2023-05-01T05:05:41;98523.81;;;7.74;87.93
42671;BME280;28283;55.426;37.756;2023-05-01T05:10:41;98532.41;;;7.62;88.40
42671;BME280;28283;55.426;37.756;2023-05-01T05:15:42;98521.34;;;7.79;88.87
42671;BME280;28283;55.426;37.756;2023-05-01T05:20:42;98532.47;;;7.82;87.59
42671;BME280;28283;55.426;37.756;2023-05-01T05:25:43;98521.34;;;7.92;87.50
42671;BME280;28283;55.426;37.756;2023-05-01T05:30:44;98537.81;;;7.76;87.99
42671;BME280;28283;55.426;37.756;2023-05-01T05:35:45;98549.72;;;7.73;88.13
42671;BME280;28283;55.426;37.756;2023-05-01T05:40:46;98547.72;;;7.95;87.53
42671;BME280;28283;55.426;37.756;2023-05-01T05:45:47;98548.75;;;8.01;87.32
42671;BME280;28283;55.426;37.756;2023-05-01T05:50:47;98562.09;;;7.94;87.66
42671;BME280;28283;55.426;37.756;2023-05-01T05:55:50;98557.59;;;8.01;87.33
42671;BME280;28283;55.426;37.756;2023-05-01T06:00:51;98570.53;;;7.84;88.32
42671;BME280;28283;55.426;37.756;2023-05-01T06:05:55;98568.50;;;8.07;87.22
42671;BME280;28283;55.426;37.756;2023-05-01T06:10:55;98559.66;;;8.19;86.19
42671;BME280;28283;55.426;37.756;2023-05-01T06:15:57;98566.25;;;8.10;87.07
42671;BME280;28283;55.426;37.756;2023-05-01T06:20:58;98577.59;;;8.32;85.40
42671;BME280;28283;55.426;37.756;2023-05-01T06:25:59;98586.44;;;8.13;86.33
42671;BME280;28283;55.426;37.756;2023-05-01T06:30:59;98590.56;;;8.29;86.27
42671;BME280;28283;55.426;37.756;2023-05-01T06:36:00;98599.28;;;8.51;85.62
42671;BME280;28283;55.426;37.756;2023-05-01T06:41:01;98600.50;;;8.68;85.12
42671;BME280;28283;55.426;37.756;2023-05-01T06:46:03;98606.28;;;8.65;84.04
42671;BME280;28283;55.426;37.756;2023-05-01T06:51:03;98611.44;;;8.60;84.61
42671;BME280;28283;55.426;37.756;2023-05-01T06:56:04;98603.78;;;8.70;82.97
42671;BME280;28283;55.426;37.756;2023-05-01T07:01:05;98614.09;;;8.60;83.17
42671;BME280;28283;55.426;37.756;2023-05-01T07:06:05;98635.31;;;8.75;82.15
42671;BME280;28283;55.426;37.756;2023-05-01T07:11:06;98646.25;;;8.73;81.88
42671;BME280;28283;55.426;37.756;2023-05-01T07:16:06;98633.88;;;8.79;81.80
42671;BME280;28283;55.426;37.756;2023-05-01T07:21:07;98643.97;;;8.77;82.04
42671;BME280;28283;55.426;37.756;2023-05-01T07:26:10;98646.88;;;8.95;81.19
42671;BME280;28283;55.426;37.756;2023-05-01T07:31:11;98657.53;;;9.35;77.70
42671;BME280;28283;55.426;37.756;2023-05-01T07:36:11;98629.63;;;9.43;75.26
42671;BME280;28283;55.426;37.756;2023-05-01T07:41:12;98667.41;;;9.42;74.52
42671;BME280;28283;55.426;37.756;2023-05-01T07:46:12;98674.63;;;9.41;75.40
42671;BME280;28283;55.426;37.756;2023-05-01T07:51:13;98683.28;;;9.50;75.40
42671;BME280;28283;55.426;37.756;2023-05-01T07:56:13;98681.53;;;9.82;73.26
42671;BME280;28283;55.426;37.756;2023-05-01T08:01:14;98689.16;;;9.85;74.64
42671;BME280;28283;55.426;37.756;2023-05-01T08:06:14;98690.09;;;10.04;72.47
42671;BME280;28283;55.426;37.756;2023-05-01T08:11:15;98686.19;;;10.07;73.43
42671;BME280;28283;55.426;37.756;2023-05-01T08:16:15;98701.97;;;10.28;71.89
42671;BME280;28283;55.426;37.756;2023-05-01T08:21:17;98706.50;;;10.28;71.53
42671;BME280;28283;55.426;37.756;2023-05-01T08:26:18;98709.78;;;10.37;70.93
42671;BME280;28283;55.426;37.756;2023-05-01T08:31:18;98714.16;;;10.69;67.28
42671;BME280;28283;55.426;37.756;2023-05-01T08:36:20;98717.84;;;10.75;66.80
42671;BME280;28283;55.426;37.756;2023-05-01T08:41:21;98724.81;;;10.83;66.82
42671;BME280;28283;55.426;37.756;2023-05-01T08:46:28;98719.09;;;10.98;64.23
42671;BME280;28283;55.426;37.756;2023-05-01T08:51:32;98714.28;;;11.06;64.23
42671;BME280;28283;55.426;37.756;2023-05-01T08:56:37;98741.22;;;11.00;65.81
42671;BME280;28283;55.426;37.756;2023-05-01T09:01:37;98751.28;;;11.11;65.59
42671;BME280;28283;55.426;37.756;2023-05-01T09:06:39;98744.28;;;11.28;64.02
42671;BME280;28283;55.426;37.756;2023-05-01T09:11:39;98733.31;;;11.30;63.21
42671;BME280;28283;55.426;37.756;2023-05-01T09:16:42;98759.28;;;11.18;64.27
42671;BME280;28283;55.426;37.756;2023-05-01T09:21:42;98753.13;;;11.11;64.89
42671;BME280;28283;55.426;37.756;2023-05-01T09:26:43;98765.16;;;11.08;64.66
42671;BME280;28283;55.426;37.756;2023-05-01T09:31:44;98769.06;;;11.12;62.18
42671;BME280;28283;55.426;37.756;2023-05-01T09:36:44;98750.44;;;11.11;63.49
42671;BME280;28283;55.426;37.756;2023-05-01T09:41:49;98755.59;;;11.37;62.36
42671;BME280;28283;55.426;37.756;2023-05-01T09:46:50;98757.88;;;11.40;62.22
42671;BME280;28283;55.426;37.756;2023-05-01T09:51:50;98776.28;;;11.43;61.11
42671;BME280;28283;55.426;37.756;2023-05-01T09:56:51;98765.97;;;11.59;59.81
42671;BME280;28283;55.426;37.756;2023-05-01T10:01:51;98774.94;;;11.53;61.12
42671;BME280;28283;55.426;37.756;2023-05-01T10:06:52;98796.44;;;11.34;61.78
42671;BME280;28283;55.426;37.756;2023-05-01T10:11:53;98800.97;;;11.34;61.16
42671;BME280;28283;55.426;37.756;2023-05-01T10:16:55;98794.78;;;11.33;61.17
42671;BME280;28283;55.426;37.756;2023-05-01T10:21:57;98799.50;;;11.38;60.32
42671;BME280;28283;55.426;37.756;2023-05-01T10:26:57;98796.91;;;11.24;60.50
42671;BME280;28283;55.426;37.756;2023-05-01T10:31:58;98829.63;;;11.21;60.81
42671;BME280;28283;55.426;37.756;2023-05-01T10:37:01;98824.47;;;11.20;60.69
42671;BME280;28283;55.426;37.756;2023-05-01T10:52:22;98857.09;;;10.98;62.45
42671;BME280;28283;55.426;37.756;2023-05-01T10:57:40;98850.16;;;10.77;63.77
42671;BME280;28283;55.426;37.756;2023-05-01T11:02:40;98854.84;;;10.50;64.73
42671;BME280;28283;55.426;37.756;2023-05-01T11:07:41;98860.28;;;10.10;65.85
42671;BME280;28283;55.426;37.756;2023-05-01T11:17:46;98909.25;;;9.45;68.73
42671;BME280;28283;55.426;37.756;2023-05-01T11:22:47;98906.94;;;9.22;69.67
42671;BME280;28283;55.426;37.756;2023-05-01T11:27:51;98908.97;;;9.07;69.94
42671;BME280;28283;55.426;37.756;2023-05-01T11:32:52;98923.53;;;8.84;71.05
42671;BME280;28283;55.426;37.756;2023-05-01T11:37:52;98948.88;;;8.82;71.12
42671;BME280;28283;55.426;37.756;2023-05-01T11:43:02;98964.28;;;8.73;70.90
42671;BME280;28283;55.426;37.756;2023-05-01T11:48:03;98947.16;;;8.67;71.20
42671;BME280;28283;55.426;37.756;2023-05-01T11:53:10;98982.38;;;8.36;71.57
42671;BME280;28283;55.426;37.756;2023-05-01T11:58:11;98984.28;;;8.14;72.49
42671;BME280;28283;55.426;37.756;2023-05-01T12:03:12;99006.41;;;8.01;72.40
42671;BME280;28283;55.426;37.756;2023-05-01T12:08:14;99000.88;;;8.02;72.89
42671;BME280;28283;55.426;37.756;2023-05-01T12:13:17;99034.16;;;7.93;70.87
42671;BME280;28283;55.426;37.756;2023-05-01T12:18:18;99023.44;;;7.72;71.30
42671;BME280;28283;55.426;37.756;2023-05-01T12:23:30;99024.81;;;7.68;71.28
42671;BME280;28283;55.426;37.756;2023-05-01T12:28:38;99025.72;;;7.53;72.30
42671;BME280;28283;55.426;37.756;2023-05-01T12:33:52;99030.34;;;7.44;73.20
42671;BME280;28283;55.426;37.756;2023-05-01T12:38:54;99062.00;;;7.26;73.29
42671;BME280;28283;55.426;37.756;2023-05-01T12:43:57;99084.41;;;7.10;75.20
42671;BME280;28283;55.426;37.756;2023-05-01T12:48:58;99089.69;;;7.18;73.59
42671;BME280;28283;55.426;37.756;2023-05-01T12:53:58;99073.72;;;7.10;72.92
42671;BME280;28283;55.426;37.756;2023-05-01T12:58:59;99095.69;;;7.05;73.35
42671;BME280;28283;55.426;37.756;2023-05-01T13:03:59;99110.97;;;6.97;72.60
42671;BME280;28283;55.426;37.756;2023-05-01T13:09:09;99112.06;;;6.87;73.15
42671;BME280;28283;55.426;37.756;2023-05-01T13:14:09;99125.44;;;7.02;73.72
42671;BME280;28283;55.426;37.756;2023-05-01T13:19:10;99138.59;;;6.89;76.31
42671;BME280;28283;55.426;37.756;2023-05-01T13:24:11;99151.00;;;6.82;75.69
42671;BME280;28283;55.426;37.756;2023-05-01T13:29:15;99150.47;;;6.72;76.72
42671;BME280;28283;55.426;37.756;2023-05-01T13:34:17;99157.34;;;6.66;76.57
42671;BME280;28283;55.426;37.756;2023-05-01T13:39:21;99108.91;;;6.31;75.76
42671;BME280;28283;55.426;37.756;2023-05-01T13:44:21;99183.66;;;6.54;77.05
42671;BME280;28283;55.426;37.756;2023-05-01T13:49:22;99198.13;;;6.60;76.96
42671;BME280;28283;55.426;37.756;2023-05-01T13:54:22;99197.41;;;6.66;77.46
42671;BME280;28283;55.426;37.756;2023-05-01T13:59:23;99192.72;;;6.68;77.18
42671;BME280;28283;55.426;37.756;2023-05-01T14:04:24;99204.25;;;6.83;76.14
42671;BME280;28283;55.426;37.756;2023-05-01T14:09:25;99189.34;;;6.89;76.29
42671;BME280;28283;55.426;37.756;2023-05-01T14:14:27;99183.66;;;6.92;74.40
42671;BME280;28283;55.426;37.756;2023-05-01T14:19:27;99194.81;;;6.96;73.19
42671;BME280;28283;55.426;37.756;2023-05-01T14:24:30;99212.13;;;7.00;73.22
42671;BME280;28283;55.426;37.756;2023-05-01T14:29:33;99200.09;;;7.04;72.73
42671;BME280;28283;55.426;37.756;2023-05-01T14:34:33;99195.84;;;7.24;70.52
42671;BME280;28283;55.426;37.756;2023-05-01T14:39:34;99211.81;;;7.33;69.71
42671;BME280;28283;55.426;37.756;2023-05-01T14:44:35;99223.16;;;7.35;70.08
42671;BME280;28283;55.426;37.756;2023-05-01T14:49:38;99214.69;;;7.31;70.13
42671;BME280;28283;55.426;37.756;2023-05-01T14:54:44;99216.34;;;7.47;68.80
42671;BME280;28283;55.426;37.756;2023-05-01T14:59:45;99216.06;;;7.42;69.34
42671;BME280;28283;55.426;37.756;2023-05-01T15:04:45;99228.63;;;7.56;68.48
42671;BME280;28283;55.426;37.756;2023-05-01T15:09:46;99243.19;;;7.69;67.91
42671;BME280;28283;55.426;37.756;2023-05-01T15:14:46;99224.75;;;7.74;67.04
42671;BME280;28283;55.426;37.756;2023-05-01T15:19:47;99243.75;;;7.79;66.67
42671;BME280;28283;55.426;37.756;2023-05-01T15:24:47;99250.28;;;7.76;66.57
42671;BME280;28283;55.426;37.756;2023-05-01T15:29:48;99259.97;;;7.62;68.19
42671;BME280;28283;55.426;37.756;2023-05-01T15:34:48;99270.88;;;7.61;68.41
42671;BME280;28283;55.426;37.756;2023-05-01T15:39:54;99284.59;;;7.73;67.61
42671;BME280;28283;55.426;37.756;2023-05-01T15:44:54;99287.66;;;7.70;66.96
42671;BME280;28283;55.426;37.756;2023-05-01T15:49:55;99292.47;;;7.74;66.97
42671;BME280;28283;55.426;37.756;2023-05-01T15:54:55;99289.97;;;7.73;67.10
42671;BME280;28283;55.426;37.756;2023-05-01T15:59:56;99314.03;;;7.73;66.42
42671;BME280;28283;55.426;37.756;2023-05-01T16:04:56;99318.56;;;7.72;66.21
42671;BME280;28283;55.426;37.756;2023-05-01T16:09:57;99319.78;;;7.84;65.13
42671;BME280;28283;55.426;37.756;2023-05-01T16:14:59;99335.72;;;7.93;64.96
42671;BME280;28283;55.426;37.756;2023-05-01T16:20:00;99340.72;;;7.96;63.28
42671;BME280;28283;55.426;37.756;2023-05-01T16:25:01;99351.78;;;7.93;62.76
42671;BME280;28283;55.426;37.756;2023-05-01T16:30:03;99349.13;;;7.78;63.60
42671;BME280;28283;55.426;37.756;2023-05-01T16:35:04;99362.66;;;7.76;62.99
42671;BME280;28283;55.426;37.756;2023-05-01T16:40:04;99361.09;;;7.82;62.94
42671;BME280;28283;55.426;37.756;2023-05-01T16:45:08;99374.59;;;7.89;62.63
42671;BME280;28283;55.426;37.756;2023-05-01T16:50:08;99388.13;;;7.72;63.87
42671;BME280;28283;55.426;37.756;2023-05-01T16:55:09;99392.94;;;7.77;63.00
42671;BME280;28283;55.426;37.756;2023-05-01T17:00:10;99397.25;;;7.63;64.40
42671;BME280;28283;55.426;37.756;2023-05-01T17:05:10;99395.22;;;7.65;64.10
42671;BME280;28283;55.426;37.756;2023-05-01T17:10:11;99405.50;;;7.53;64.95
42671;BME280;28283;55.426;37.756;2023-05-01T17:15:11;99417.53;;;7.57;64.83
42671;BME280;28283;55.426;37.756;2023-05-01T17:20:12;99423.41;;;7.53;64.57
42671;BME280;28283;55.426;37.756;2023-05-01T17:25:13;99441.19;;;7.45;65.57
42671;BME280;28283;55.426;37.756;2023-05-01T17:30:13;99437.69;;;7.45;65.06
42671;BME280;28283;55.426;37.756;2023-05-01T17:35:14;99440.09;;;7.32;65.59
42671;BME280;28283;55.426;37.756;2023-05-01T17:40:15;99459.38;;;7.50;65.38
42671;BME280;28283;55.426;37.756;2023-05-01T17:45:16;99455.47;;;7.38;65.93
42671;BME280;28283;55.426;37.756;2023-05-01T17:50:17;99455.81;;;7.35;66.49
42671;BME280;28283;55.426;37.756;2023-05-01T17:55:17;99458.47;;;7.35;66.47
42671;BME280;28283;55.426;37.756;2023-05-01T18:00:18;99473.75;;;7.26;66.81
42671;BME280;28283;55.426;37.756;2023-05-01T18:05:18;99489.91;;;7.33;67.35
42671;BME280;28283;55.426;37.756;2023-05-01T18:10:19;99491.09;;;7.30;67.86
42671;BME280;28283;55.426;37.756;2023-05-01T18:15:19;99488.69;;;7.43;67.31
42671;BME280;28283;55.426;37.756;2023-05-01T18:20:20;99491.53;;;7.42;67.55
42671;BME280;28283;55.426;37.756;2023-05-01T18:25:21;99505.81;;;7.26;69.14
42671;BME280;28283;55.426;37.756;2023-05-01T18:30:22;99514.25;;;7.15;69.82
42671;BME280;28283;55.426;37.756;2023-05-01T18:35:23;99523.16;;;6.99;70.06
42671;BME280;28283;55.426;37.756;2023-05-01T18:40:23;99528.84;;;6.96;70.42
42671;BME280;28283;55.426;37.756;2023-05-01T18:45:26;99531.59;;;7.19;69.59
42671;BME280;28283;55.426;37.756;2023-05-01T18:50:26;99551.00;;;7.44;70.05
42671;BME280;28283;55.426;37.756;2023-05-01T18:55:27;99555.06;;;7.40;67.55
42671;BME280;28283;55.426;37.756;2023-05-01T19:00:28;99565.53;;;7.10;68.23
42671;BME280;28283;55.426;37.756;2023-05-01T19:05:29;99562.66;;;6.80;71.37
42671;BME280;28283;55.426;37.756;2023-05-01T19:10:30;99569.88;;;6.47;74.66
42671;BME280;28283;55.426;37.756;2023-05-01T19:15:31;99586.41;;;6.09;75.84
42671;BME280;28283;55.426;37.756;2023-05-01T19:20:31;99587.22;;;5.85;76.69
42671;BME280;28283;55.426;37.756;2023-05-01T19:25:32;99583.34;;;5.71;76.92
42671;BME280;28283;55.426;37.756;2023-05-01T19:30:33;99599.84;;;5.75;76.55
42671;BME280;28283;55.426;37.756;2023-05-01T19:35:33;99604.66;;;5.55;76.56
42671;BME280;28283;55.426;37.756;2023-05-01T19:40:34;99593.84;;;5.73;76.15
42671;BME280;28283;55.426;37.756;2023-05-01T19:45:35;99601.03;;;5.81;76.63
42671;BME280;28283;55.426;37.756;2023-05-01T19:50:36;99599.78;;;6.01;75.37
42671;BME280;28283;55.426;37.756;2023-05-01T19:55:36;99572.59;;;5.98;74.26
42671;BME280;28283;55.426;37.756;2023-05-01T20:00:39;99594.09;;;6.04;74.94
42671;BME280;28283;55.426;37.756;2023-05-01T20:05:40;99597.59;;;5.97;75.25
42671;BME280;28283;55.426;37.756;2023-05-01T20:10:40;99608.44;;;6.11;74.63
42671;BME280;28283;55.426;37.756;2023-05-01T20:15:44;99617.13;;;6.38;73.67
42671;BME280;28283;55.426;37.756;2023-05-01T20:20:44;99620.78;;;6.04;75.68
42671;BME280;28283;55.426;37.756;2023-05-01T20:25:44;99621.63;;;6.05;75.39
42671;BME280;28283;55.426;37.756;2023-05-01T20:30:50;99626.06;;;5.80;76.59
42671;BME280;28283;55.426;37.756;2023-05-01T20:35:51;99646.38;;;5.72;76.99
42671;BME280;28283;55.426;37.756;2023-05-01T20:40:52;99643.97;;;5.61;77.25
42671;BME280;28283;55.426;37.756;2023-05-01T20:45:52;99643.31;;;5.51;77.41
42671;BME280;28283;55.426;37.756;2023-05-01T20:50:53;99658.06;;;5.37;78.01
42671;BME280;28283;55.426;37.756;2023-05-01T20:55:53;99665.84;;;5.30;78.45
42671;BME280;28283;55.426;37.756;2023-05-01T21:00:54;99662.53;;;5.28;78.11
42671;BME280;28283;55.426;37.756;2023-05-01T21:05:58;99670.63;;;5.19;77.99
42671;BME280;28283;55.426;37.756;2023-05-01T21:10:59;99683.69;;;5.04;78.16
42671;BME280;28283;55.426;37.756;2023-05-01T21:16:00;99680.63;;;4.90;78.82
42671;BME280;28283;55.426;37.756;2023-05-01T21:21:01;99694.50;;;4.76;79.09
42671;BME280;28283;55.426;37.756;2023-05-01T21:26:02;99709.09;;;4.72;78.92
42671;BME280;28283;55.426;37.756;2023-05-01T21:31:02;99710.94;;;4.71;78.47
42671;BME280;28283;55.426;37.756;2023-05-01T21:36:03;99715.50;;;4.61;78.02
42671;BME280;28283;55.426;37.756;2023-05-01T21:41:03;99741.41;;;4.51;77.98
42671;BME280;28283;55.426;37.756;2023-05-01T21:46:04;99742.75;;;4.37;78.50
42671;BME280;28283;55.426;37.756;2023-05-01T21:51:04;99745.50;;;4.27;78.24
42671;BME280;28283;55.426;37.756;2023-05-01T21:56:05;99754.59;;;4.25;77.83
42671;BME280;28283;55.426;37.756;2023-05-01T22:01:05;99765.06;;;4.08;78.02
42671;BME280;28283;55.426;37.756;2023-05-01T22:06:08;99759.59;;;4.10;77.67
42671;BME280;28283;55.426;37.756;2023-05-01T22:11:08;99776.47;;;4.00;77.70
42671;BME280;28283;55.426;37.756;2023-05-01T22:16:08;99782.94;;;3.88;78.35
42671;BME280;28283;55.426;37.756;2023-05-01T22:21:09;99782.84;;;3.80;78.30
42671;BME280;28283;55.426;37.756;2023-05-01T22:26:09;99783.72;;;3.71;78.68
42671;BME280;28283;55.426;37.756;2023-05-01T22:31:10;99800.69;;;3.70;78.84
42671;BME280;28283;55.426;37.756;2023-05-01T22:36:10;99804.91;;;3.62;79.07
42671;BME280;28283;55.426;37.756;2023-05-01T22:41:11;99800.59;;;3.52;79.34
42671;BME280;28283;55.426;37.756;2023-05-01T22:46:11;99806.19;;;3.49;79.29
42671;BME280;28283;55.426;37.756;2023-05-01T22:51:12;99815.81;;;3.50;79.02
42671;BME280;28283;55.426;37.756;2023-05-01T22:56:12;99816.41;;;3.43;79.45
42671;BME280;28283;55.426;37.756;2023-05-01T23:01:13;99822.81;;;3.41;79.41
42671;BME280;28283;55.426;37.756;2023-05-01T23:06:14;99831.25;;;3.36;79.39
42671;BME280;28283;55.426;37.756;2023-05-01T23:11:15;99838.66;;;3.23;79.70
42671;BME280;28283;55.426;37.756;2023-05-01T23:16:20;99845.25;;;3.19;80.20
42671;BME280;28283;55.426;37.756;2023-05-01T23:21:20;99848.72;;;3.19;79.74
42671;BME280;28283;55.426;37.756;2023-05-01T23:26:25;99862.44;;;3.15;80.37
42671;BME280;28283;55.426;37.756;2023-05-01T23:31:26;99867.19;;;3.21;79.94
42671;BME280;28283;55.426;37.756;2023-05-01T23:36:26;99864.97;;;3.16;79.66
42671;BME280;28283;55.426;37.756;2023-05-01T23:41:28;99872.25;;;3.14;79.30
42671;BME280;28283;55.426;37.756;2023-05-01T23:46:28;99878.94;;;3.09;79.62
42671;BME280;28283;55.426;37.756;2023-05-01T23:51:29;99882.56;;;2.98;79.40
42671;BME280;28283;55.426;37.756;2023-05-01T23:56:30;99892.50;;;2.96;79.78
